createdAt,value
2019-01-27T00:00:37.947Z,993.38
2019-01-27T00:01:42.079Z,993.37
2019-01-27T00:02:46.233Z,993.35
2019-01-27T00:03:50.438Z,993.35
2019-01-27T00:04:54.606Z,993.32
2019-01-27T00:05:58.739Z,993.30
2019-01-27T00:07:02.924Z,993.26
2019-01-27T00:08:13.276Z,993.26
2019-01-27T00:09:11.222Z,993.26
2019-01-27T00:10:15.437Z,993.24
2019-01-27T00:11:19.610Z,993.21
2019-01-27T00:12:23.790Z,993.18
2019-01-27T00:13:27.980Z,993.16
2019-01-27T00:14:32.164Z,993.14
2019-01-27T00:15:36.373Z,993.13
2019-01-27T00:16:40.544Z,993.12
2019-01-27T00:17:44.706Z,993.11
2019-01-27T00:18:48.783Z,993.07
2019-01-27T00:19:52.890Z,993.05
2019-01-27T00:20:57.168Z,993.02
2019-01-27T00:22:01.324Z,992.99
2019-01-27T00:23:05.401Z,992.99
2019-01-27T00:24:09.532Z,992.99
2019-01-27T00:25:13.685Z,992.96
2019-01-27T00:26:17.938Z,992.94
2019-01-27T00:27:22.016Z,992.94
2019-01-27T00:28:26.256Z,992.90
2019-01-27T00:29:30.388Z,992.90
2019-01-27T00:30:34.575Z,992.93
2019-01-27T00:31:38.669Z,992.91
2019-01-27T00:32:42.791Z,992.88
2019-01-27T00:33:46.993Z,992.84
2019-01-27T00:34:51.047Z,992.84
2019-01-27T00:35:55.332Z,992.83
2019-01-27T00:36:59.427Z,992.79
2019-01-27T00:38:04.441Z,992.79
2019-01-27T00:39:08.295Z,992.77
2019-01-27T00:40:12.482Z,992.74
2019-01-27T00:41:16.685Z,992.75
2019-01-27T00:42:20.720Z,992.74
2019-01-27T00:43:24.998Z,992.71
2019-01-27T00:44:29.153Z,992.67
2019-01-27T00:45:33.272Z,992.63
2019-01-27T00:46:38.288Z,992.60
2019-01-27T00:47:42.035Z,992.58
2019-01-27T00:48:46.177Z,992.51
2019-01-27T00:49:50.296Z,992.50
2019-01-27T00:50:54.458Z,992.47
2019-01-27T00:51:58.558Z,992.47
2019-01-27T00:53:02.696Z,992.44
2019-01-27T00:54:06.949Z,992.44
2019-01-27T00:55:11.125Z,992.41
2019-01-27T00:56:16.114Z,992.37
2019-01-27T00:57:19.976Z,992.37
2019-01-27T00:58:24.136Z,992.35
2019-01-27T00:59:28.327Z,992.31
2019-01-27T01:00:32.445Z,992.33
2019-01-27T01:01:36.738Z,992.31
2019-01-27T01:02:40.906Z,992.31
2019-01-27T01:03:45.087Z,992.31
2019-01-27T01:04:49.263Z,992.30
2019-01-27T01:05:53.502Z,992.28
2019-01-27T01:06:57.569Z,992.27
2019-01-27T01:08:01.813Z,992.25
2019-01-27T01:09:05.899Z,992.27
2019-01-27T01:10:10.018Z,992.26
2019-01-27T01:11:14.272Z,992.22
2019-01-27T01:12:18.433Z,992.22
2019-01-27T01:13:22.508Z,992.21
2019-01-27T01:14:26.743Z,992.15
2019-01-27T01:15:30.944Z,992.13
2019-01-27T01:16:35.169Z,992.15
2019-01-27T01:17:39.229Z,992.14
2019-01-27T01:18:43.456Z,992.12
2019-01-27T01:19:47.559Z,992.13
2019-01-27T01:20:51.669Z,992.08
2019-01-27T01:21:55.957Z,992.06
2019-01-27T01:23:00.052Z,992.08
2019-01-27T01:24:04.285Z,992.05
2019-01-27T01:25:08.348Z,992.03
2019-01-27T01:26:12.534Z,992.03
2019-01-27T01:27:17.553Z,992.00
2019-01-27T01:28:21.372Z,992.01
2019-01-27T01:30:34.330Z,992.00
2019-01-27T01:31:39.370Z,991.98
2019-01-27T01:32:43.102Z,991.98
2019-01-27T01:33:47.346Z,991.92
2019-01-27T01:34:51.399Z,991.91
2019-01-27T01:35:55.656Z,991.89
2019-01-27T01:36:59.859Z,991.88
2019-01-27T01:38:04.037Z,991.88
2019-01-27T01:39:08.214Z,991.87
2019-01-27T01:40:12.341Z,991.86
2019-01-27T01:41:16.425Z,991.83
2019-01-27T01:42:20.573Z,991.83
2019-01-27T01:43:24.781Z,991.84
2019-01-27T01:44:28.872Z,991.79
2019-01-27T01:45:33.010Z,991.80
2019-01-27T01:46:38.043Z,991.78
2019-01-27T01:47:41.870Z,991.77
2019-01-27T01:48:46.034Z,991.75
2019-01-27T01:49:50.099Z,991.74
2019-01-27T01:50:54.332Z,991.69
2019-01-27T01:51:58.551Z,991.69
2019-01-27T01:53:02.731Z,991.70
2019-01-27T01:54:07.699Z,991.66
2019-01-27T01:55:11.548Z,991.62
2019-01-27T01:56:15.645Z,991.61
2019-01-27T01:57:19.891Z,991.60
2019-01-27T01:58:24.051Z,991.60
2019-01-27T01:59:28.222Z,991.57
2019-01-27T02:00:32.390Z,991.53
2019-01-27T02:01:36.456Z,991.52
2019-01-27T02:02:40.701Z,991.52
2019-01-27T02:03:44.890Z,991.50
2019-01-27T02:04:49.021Z,991.51
2019-01-27T02:05:53.068Z,991.49
2019-01-27T02:06:57.333Z,991.46
2019-01-27T02:08:01.533Z,991.44
2019-01-27T02:09:05.578Z,991.42
2019-01-27T02:10:09.821Z,991.41
2019-01-27T02:11:13.983Z,991.40
2019-01-27T02:12:18.095Z,991.35
2019-01-27T02:13:23.093Z,991.33
2019-01-27T02:14:26.883Z,991.33
2019-01-27T02:15:31.119Z,991.29
2019-01-27T02:16:35.310Z,991.23
2019-01-27T02:17:39.526Z,991.23
2019-01-27T02:18:43.697Z,991.18
2019-01-27T02:19:47.897Z,991.11
2019-01-27T02:20:51.922Z,991.05
2019-01-27T02:21:56.187Z,991.04
2019-01-27T02:23:00.397Z,991.00
2019-01-27T02:24:04.528Z,990.97
2019-01-27T02:25:08.687Z,990.94
2019-01-27T02:26:12.859Z,990.92
2019-01-27T02:27:17.040Z,990.90
2019-01-27T02:28:21.272Z,990.87
2019-01-27T02:29:25.440Z,990.87
2019-01-27T02:30:29.508Z,990.83
2019-01-27T02:31:33.747Z,990.77
2019-01-27T02:32:37.922Z,990.75
2019-01-27T02:33:42.145Z,990.73
2019-01-27T02:34:46.322Z,990.66
2019-01-27T02:35:50.428Z,990.64
2019-01-27T02:36:54.569Z,990.61
2019-01-27T02:37:58.797Z,990.56
2019-01-27T02:39:02.990Z,990.54
2019-01-27T02:40:07.186Z,990.52
2019-01-27T02:41:11.366Z,990.51
2019-01-27T02:42:16.329Z,990.49
2019-01-27T02:43:20.049Z,990.50
2019-01-27T02:44:24.290Z,990.46
2019-01-27T02:45:28.487Z,990.45
2019-01-27T02:46:32.559Z,990.40
2019-01-27T02:47:36.835Z,990.42
2019-01-27T02:48:41.828Z,990.39
2019-01-27T02:49:45.579Z,990.39
2019-01-27T02:50:49.763Z,990.37
2019-01-27T02:51:53.831Z,990.35
2019-01-27T02:52:58.099Z,990.36
2019-01-27T02:54:02.251Z,990.31
2019-01-27T02:55:06.352Z,990.27
2019-01-27T02:56:10.503Z,990.26
2019-01-27T02:57:14.704Z,990.28
2019-01-27T02:58:18.911Z,990.21
2019-01-27T02:59:23.086Z,990.19
2019-01-27T03:00:27.156Z,990.19
2019-01-27T03:01:31.395Z,990.15
2019-01-27T03:02:35.595Z,990.16
2019-01-27T03:03:39.773Z,990.15
2019-01-27T03:04:43.977Z,990.15
2019-01-27T03:05:48.043Z,990.11
2019-01-27T03:06:52.249Z,990.07
2019-01-27T03:07:59.371Z,990.08
2019-01-27T03:09:02.641Z,990.05
2019-01-27T03:10:06.812Z,990.03
2019-01-27T03:11:10.971Z,990.00
2019-01-27T03:12:15.047Z,989.99
2019-01-27T03:13:19.268Z,990.00
2019-01-27T03:14:23.461Z,989.99
2019-01-27T03:15:27.633Z,989.97
2019-01-27T03:16:31.833Z,989.97
2019-01-27T03:17:36.002Z,989.95
2019-01-27T03:18:40.222Z,989.95
2019-01-27T03:19:44.401Z,989.95
2019-01-27T03:20:48.504Z,989.96
2019-01-27T03:21:52.618Z,989.94
2019-01-27T03:22:56.889Z,989.90
2019-01-27T03:24:00.943Z,989.91
2019-01-27T03:25:05.156Z,989.88
2019-01-27T03:26:09.342Z,989.85
2019-01-27T03:27:13.517Z,989.86
2019-01-27T03:28:17.741Z,989.82
2019-01-27T03:29:21.942Z,989.80
2019-01-27T03:30:26.143Z,989.79
2019-01-27T03:31:30.333Z,989.79
2019-01-27T03:32:34.507Z,989.76
2019-01-27T03:33:38.701Z,989.77
2019-01-27T03:34:42.907Z,989.74
2019-01-27T03:35:47.124Z,989.73
2019-01-27T03:36:51.227Z,989.67
2019-01-27T03:37:55.411Z,989.67
2019-01-27T03:38:59.651Z,989.63
2019-01-27T03:40:03.799Z,989.57
2019-01-27T03:41:08.007Z,989.57
2019-01-27T03:42:12.148Z,989.60
2019-01-27T03:43:16.165Z,989.58
2019-01-27T03:44:20.414Z,989.58
2019-01-27T03:45:24.609Z,989.57
2019-01-27T03:46:28.820Z,989.52
2019-01-27T03:47:32.979Z,989.50
2019-01-27T03:48:37.172Z,989.48
2019-01-27T03:49:41.377Z,989.48
2019-01-27T03:50:45.419Z,989.51
2019-01-27T03:51:49.683Z,989.47
2019-01-27T03:52:53.923Z,989.47
2019-01-27T03:53:58.091Z,989.43
2019-01-27T03:55:02.331Z,989.45
2019-01-27T03:56:06.446Z,989.40
2019-01-27T03:57:10.622Z,989.39
2019-01-27T03:58:14.844Z,989.41
2019-01-27T03:59:18.920Z,989.39
2019-01-27T04:00:23.177Z,989.37
2019-01-27T04:01:27.384Z,989.36
2019-01-27T04:02:31.462Z,989.30
2019-01-27T04:03:36.475Z,989.28
2019-01-27T04:04:40.197Z,989.26
2019-01-27T04:05:44.430Z,989.23
2019-01-27T04:06:48.655Z,989.21
2019-01-27T04:07:52.699Z,989.21
2019-01-27T04:08:56.848Z,989.22
2019-01-27T04:10:01.088Z,989.20
2019-01-27T04:11:05.266Z,989.21
2019-01-27T04:12:10.281Z,989.19
2019-01-27T04:13:14.108Z,989.12
2019-01-27T04:14:19.045Z,989.13
2019-01-27T04:15:22.881Z,989.10
2019-01-27T04:16:26.956Z,989.07
2019-01-27T04:17:31.219Z,989.02
2019-01-27T04:18:35.404Z,989.00
2019-01-27T04:19:39.518Z,988.96
2019-01-27T04:20:44.571Z,988.97
2019-01-27T04:21:48.435Z,988.93
2019-01-27T04:22:52.643Z,988.89
2019-01-27T04:23:56.720Z,988.88
2019-01-27T04:25:00.962Z,988.87
2019-01-27T04:26:05.026Z,988.85
2019-01-27T04:27:09.296Z,988.82
2019-01-27T04:28:13.392Z,988.82
2019-01-27T04:29:17.633Z,988.80
2019-01-27T04:30:21.714Z,988.78
2019-01-27T04:31:25.898Z,988.77
2019-01-27T04:32:30.107Z,988.78
2019-01-27T04:33:34.238Z,988.76
2019-01-27T04:34:38.439Z,988.73
2019-01-27T04:35:42.544Z,988.72
2019-01-27T04:36:47.540Z,988.71
2019-01-27T04:37:51.302Z,988.69
2019-01-27T04:38:55.434Z,988.68
2019-01-27T04:39:59.639Z,988.70
2019-01-27T04:41:04.615Z,988.68
2019-01-27T04:42:08.445Z,988.67
2019-01-27T04:43:12.531Z,988.70
2019-01-27T04:44:16.743Z,988.70
2019-01-27T04:45:20.851Z,988.67
2019-01-27T04:46:25.115Z,988.64
2019-01-27T04:47:30.079Z,988.65
2019-01-27T04:48:33.848Z,988.64
2019-01-27T04:49:38.072Z,988.64
2019-01-27T04:50:42.248Z,988.62
2019-01-27T04:51:46.468Z,988.60
2019-01-27T04:52:50.664Z,988.62
2019-01-27T04:53:54.862Z,988.62
2019-01-27T04:54:59.048Z,988.62
2019-01-27T04:56:03.141Z,988.62
2019-01-27T04:57:07.277Z,988.60
2019-01-27T04:58:11.498Z,988.59
2019-01-27T04:59:15.597Z,988.58
2019-01-27T05:00:19.736Z,988.56
2019-01-27T05:01:23.952Z,988.53
2019-01-27T05:02:28.023Z,988.52
2019-01-27T05:03:32.299Z,988.51
2019-01-27T05:04:36.475Z,988.48
2019-01-27T05:05:43.633Z,988.46
2019-01-27T05:06:46.863Z,988.42
2019-01-27T05:07:50.949Z,988.40
2019-01-27T05:08:55.113Z,988.39
2019-01-27T05:09:59.349Z,988.41
2019-01-27T05:11:03.547Z,988.41
2019-01-27T05:12:07.625Z,988.37
2019-01-27T05:13:11.766Z,988.36
2019-01-27T05:14:15.899Z,988.35
2019-01-27T05:15:20.062Z,988.33
2019-01-27T05:16:24.267Z,988.33
2019-01-27T05:17:28.454Z,988.31
2019-01-27T05:18:32.600Z,988.32
2019-01-27T05:19:36.704Z,988.33
2019-01-27T05:20:40.856Z,988.32
2019-01-27T05:21:45.101Z,988.33
2019-01-27T05:22:49.190Z,988.32
2019-01-27T05:23:53.368Z,988.32
2019-01-27T05:24:57.524Z,988.32
2019-01-27T05:26:01.769Z,988.32
2019-01-27T05:27:05.978Z,988.32
2019-01-27T05:28:10.080Z,988.29
2019-01-27T05:29:14.316Z,988.28
2019-01-27T05:30:18.431Z,988.26
2019-01-27T05:31:22.579Z,988.22
2019-01-27T05:32:26.731Z,988.24
2019-01-27T05:33:30.846Z,988.22
2019-01-27T05:34:35.042Z,988.19
2019-01-27T05:35:39.272Z,988.17
2019-01-27T05:36:43.452Z,988.17
2019-01-27T05:37:47.663Z,988.15
2019-01-27T05:38:51.733Z,988.14
2019-01-27T05:39:56.004Z,988.13
2019-01-27T05:41:00.105Z,988.12
2019-01-27T05:42:04.263Z,988.13
2019-01-27T05:43:08.408Z,988.09
2019-01-27T05:44:12.703Z,988.07
2019-01-27T05:45:16.885Z,988.05
2019-01-27T05:46:21.070Z,988.02
2019-01-27T05:47:25.139Z,988.00
2019-01-27T05:48:29.294Z,988.00
2019-01-27T05:49:33.510Z,987.99
2019-01-27T05:50:37.753Z,988.00
2019-01-27T05:51:41.814Z,987.92
2019-01-27T05:52:45.959Z,987.90
2019-01-27T05:53:50.183Z,987.87
2019-01-27T05:54:54.283Z,987.89
2019-01-27T05:55:58.546Z,987.89
2019-01-27T05:57:02.656Z,987.87
2019-01-27T05:58:06.811Z,987.88
2019-01-27T05:59:10.992Z,987.85
2019-01-27T06:00:15.176Z,987.82
2019-01-27T06:01:22.278Z,987.82
2019-01-27T06:02:25.429Z,987.79
2019-01-27T06:03:29.544Z,987.79
2019-01-27T06:04:33.746Z,987.79
2019-01-27T06:05:37.889Z,987.77
2019-01-27T06:06:42.026Z,987.78
2019-01-27T06:07:46.171Z,987.80
2019-01-27T06:08:50.305Z,987.78
2019-01-27T06:09:54.464Z,987.80
2019-01-27T06:10:58.617Z,987.79
2019-01-27T06:12:02.861Z,987.77
2019-01-27T06:13:07.027Z,987.73
2019-01-27T06:14:11.226Z,987.75
2019-01-27T06:15:15.421Z,987.77
2019-01-27T06:16:19.511Z,987.77
2019-01-27T06:17:23.789Z,987.75
2019-01-27T06:18:27.867Z,987.72
2019-01-27T06:19:31.999Z,987.71
2019-01-27T06:20:36.193Z,987.72
2019-01-27T06:21:40.306Z,987.70
2019-01-27T06:22:44.547Z,987.67
2019-01-27T06:23:48.752Z,987.70
2019-01-27T06:24:52.836Z,987.71
2019-01-27T06:25:57.086Z,987.71
2019-01-27T06:27:01.174Z,987.70
2019-01-27T06:28:05.431Z,987.67
2019-01-27T06:29:09.626Z,987.66
2019-01-27T06:30:13.764Z,987.64
2019-01-27T06:31:17.971Z,987.62
2019-01-27T06:32:22.199Z,987.61
2019-01-27T06:33:26.351Z,987.61
2019-01-27T06:34:30.452Z,987.61
2019-01-27T06:35:34.617Z,987.59
2019-01-27T06:36:38.866Z,987.57
2019-01-27T06:37:42.996Z,987.56
2019-01-27T06:38:47.179Z,987.52
2019-01-27T06:39:51.260Z,987.53
2019-01-27T06:40:55.437Z,987.49
2019-01-27T06:41:59.553Z,987.49
2019-01-27T06:43:03.719Z,987.45
2019-01-27T06:44:07.976Z,987.47
2019-01-27T06:45:12.215Z,987.45
2019-01-27T06:46:16.292Z,987.47
2019-01-27T06:47:20.412Z,987.47
2019-01-27T06:48:24.558Z,987.42
2019-01-27T06:49:28.683Z,987.39
2019-01-27T06:50:32.989Z,987.41
2019-01-27T06:51:37.140Z,987.44
2019-01-27T06:52:41.326Z,987.43
2019-01-27T06:53:45.519Z,987.45
2019-01-27T06:54:49.791Z,987.41
2019-01-27T06:55:53.873Z,987.39
2019-01-27T06:56:58.107Z,987.35
2019-01-27T06:58:02.151Z,987.34
2019-01-27T06:59:06.393Z,987.34
2019-01-27T07:00:11.520Z,987.32
2019-01-27T07:01:15.232Z,987.31
2019-01-27T07:02:19.373Z,987.32
2019-01-27T07:03:23.644Z,987.31
2019-01-27T07:04:27.761Z,987.28
2019-01-27T07:05:31.835Z,987.26
2019-01-27T07:06:36.103Z,987.22
2019-01-27T07:07:40.277Z,987.20
2019-01-27T07:08:44.389Z,987.19
2019-01-27T07:09:49.466Z,987.16
2019-01-27T07:10:53.183Z,987.17
2019-01-27T07:11:57.455Z,987.17
2019-01-27T07:13:01.633Z,987.16
2019-01-27T07:14:05.699Z,987.16
2019-01-27T07:15:09.905Z,987.15
2019-01-27T07:16:14.087Z,987.15
2019-01-27T07:17:18.192Z,987.14
2019-01-27T07:18:22.338Z,987.13
2019-01-27T07:19:26.468Z,987.16
2019-01-27T07:20:30.617Z,987.15
2019-01-27T07:21:35.774Z,987.15
2019-01-27T07:22:39.493Z,987.11
2019-01-27T07:23:43.739Z,987.08
2019-01-27T07:24:47.749Z,987.04
2019-01-27T07:25:51.909Z,987.03
2019-01-27T07:26:56.050Z,987.00
2019-01-27T07:28:00.294Z,986.99
2019-01-27T07:29:04.410Z,986.99
2019-01-27T07:30:08.621Z,986.98
2019-01-27T07:31:12.743Z,986.96
2019-01-27T07:32:16.912Z,986.94
2019-01-27T07:33:21.040Z,986.95
2019-01-27T07:34:25.162Z,986.94
2019-01-27T07:35:29.334Z,986.92
2019-01-27T07:36:33.636Z,986.91
2019-01-27T07:37:37.814Z,986.91
2019-01-27T07:38:42.026Z,986.91
2019-01-27T07:39:49.154Z,986.89
2019-01-27T07:40:52.371Z,986.85
2019-01-27T07:41:56.542Z,986.86
2019-01-27T07:43:00.628Z,986.88
2019-01-27T07:44:03.631Z,986.84
2019-01-27T07:45:07.703Z,986.85
2019-01-27T07:46:11.828Z,986.85
2019-01-27T07:47:15.966Z,986.82
2019-01-27T07:48:20.116Z,986.78
2019-01-27T07:49:24.368Z,986.78
2019-01-27T07:50:28.564Z,986.80
2019-01-27T07:51:32.658Z,986.80
2019-01-27T07:52:36.815Z,986.78
2019-01-27T07:53:40.944Z,986.74
2019-01-27T07:54:45.096Z,986.75
2019-01-27T07:55:49.249Z,986.73
2019-01-27T07:56:53.501Z,986.72
2019-01-27T07:57:57.560Z,986.70
2019-01-27T07:59:01.741Z,986.67
2019-01-27T08:00:05.884Z,986.63
2019-01-27T08:01:10.053Z,986.63
2019-01-27T08:02:14.280Z,986.60
2019-01-27T08:03:18.451Z,986.60
2019-01-27T08:04:22.539Z,986.58
2019-01-27T08:05:27.783Z,986.57
2019-01-27T08:06:31.617Z,986.54
2019-01-27T08:07:35.763Z,986.51
2019-01-27T08:08:39.947Z,986.51
2019-01-27T08:09:44.110Z,986.49
2019-01-27T08:10:48.303Z,986.49
2019-01-27T08:11:52.421Z,986.46
2019-01-27T08:12:56.603Z,986.44
2019-01-27T08:14:00.846Z,986.43
2019-01-27T08:15:05.032Z,986.40
2019-01-27T08:16:09.247Z,986.40
2019-01-27T08:17:13.444Z,986.39
2019-01-27T08:18:17.566Z,986.39
2019-01-27T08:19:21.690Z,986.39
2019-01-27T08:20:25.950Z,986.38
2019-01-27T08:21:30.013Z,986.37
2019-01-27T08:22:34.166Z,986.37
2019-01-27T08:23:38.300Z,986.36
2019-01-27T08:24:42.428Z,986.33
2019-01-27T08:25:46.558Z,986.36
2019-01-27T08:26:50.738Z,986.33
2019-01-27T08:27:54.864Z,986.31
2019-01-27T08:28:59.017Z,986.32
2019-01-27T08:30:03.170Z,986.32
2019-01-27T08:31:07.339Z,986.33
2019-01-27T08:32:11.605Z,986.34
2019-01-27T08:33:15.836Z,986.34
2019-01-27T08:34:19.922Z,986.35
2019-01-27T08:35:24.126Z,986.33
2019-01-27T08:36:28.319Z,986.33
2019-01-27T08:37:32.383Z,986.36
2019-01-27T08:38:36.532Z,986.34
2019-01-27T08:39:40.748Z,986.34
2019-01-27T08:40:44.894Z,986.32
2019-01-27T08:41:48.988Z,986.31
2019-01-27T08:42:53.219Z,986.32
2019-01-27T08:43:57.320Z,986.31
2019-01-27T08:45:01.426Z,986.30
2019-01-27T08:46:05.604Z,986.30
2019-01-27T08:47:09.739Z,986.26
2019-01-27T08:48:13.905Z,986.27
2019-01-27T08:49:18.034Z,986.26
2019-01-27T08:50:22.319Z,986.23
2019-01-27T08:51:26.530Z,986.23
2019-01-27T08:52:30.664Z,986.24
2019-01-27T08:53:34.891Z,986.24
2019-01-27T08:54:38.978Z,986.21
2019-01-27T08:55:43.152Z,986.22
2019-01-27T08:56:47.191Z,986.21
2019-01-27T08:57:51.367Z,986.19
2019-01-27T08:58:55.619Z,986.15
2019-01-27T08:59:59.659Z,986.17
2019-01-27T09:01:03.772Z,986.13
2019-01-27T09:02:08.005Z,986.12
2019-01-27T09:03:12.105Z,986.13
2019-01-27T09:04:16.364Z,986.11
2019-01-27T09:05:20.471Z,986.09
2019-01-27T09:06:24.627Z,986.07
2019-01-27T09:07:28.678Z,986.06
2019-01-27T09:08:33.036Z,986.04
2019-01-27T09:09:37.183Z,986.03
2019-01-27T09:10:41.173Z,986.05
2019-01-27T09:11:45.496Z,986.04
2019-01-27T09:12:49.678Z,986.03
2019-01-27T09:13:53.948Z,986.06
2019-01-27T09:14:57.993Z,986.05
2019-01-27T09:16:02.234Z,986.04
2019-01-27T09:17:06.445Z,986.05
2019-01-27T09:18:13.603Z,986.05
2019-01-27T09:19:16.824Z,986.05
2019-01-27T09:20:20.955Z,986.04
2019-01-27T09:21:25.112Z,986.05
2019-01-27T09:22:29.340Z,986.01
2019-01-27T09:23:33.542Z,986.05
2019-01-27T09:24:37.737Z,986.01
2019-01-27T09:25:41.828Z,986.01
2019-01-27T09:26:45.992Z,986.00
2019-01-27T09:27:50.248Z,985.98
2019-01-27T09:28:54.328Z,985.94
2019-01-27T09:29:58.484Z,985.91
2019-01-27T09:31:02.731Z,985.88
2019-01-27T09:32:06.810Z,985.85
2019-01-27T09:33:10.981Z,985.88
2019-01-27T09:34:15.278Z,985.88
2019-01-27T09:35:19.391Z,985.86
2019-01-27T09:36:23.642Z,985.87
2019-01-27T09:37:27.838Z,985.84
2019-01-27T09:38:32.108Z,985.80
2019-01-27T09:39:36.277Z,985.78
2019-01-27T09:40:40.492Z,985.78
2019-01-27T09:41:44.747Z,985.78
2019-01-27T09:42:48.922Z,985.80
2019-01-27T09:43:53.151Z,985.79
2019-01-27T09:44:57.212Z,985.75
2019-01-27T09:46:05.469Z,985.75
2019-01-27T09:47:05.998Z,985.74
2019-01-27T09:48:10.243Z,985.72
2019-01-27T09:49:14.462Z,985.70
2019-01-27T09:50:18.654Z,985.67
2019-01-27T09:51:22.724Z,985.68
2019-01-27T09:52:26.904Z,985.66
2019-01-27T09:53:31.037Z,985.67
2019-01-27T09:54:35.303Z,985.65
2019-01-27T09:55:39.511Z,985.65
2019-01-27T09:56:43.708Z,985.62
2019-01-27T09:57:47.799Z,985.61
2019-01-27T09:58:52.088Z,985.62
2019-01-27T09:59:56.220Z,985.63
2019-01-27T10:01:00.457Z,985.62
2019-01-27T10:02:04.713Z,985.61
2019-01-27T10:03:08.878Z,985.64
2019-01-27T10:04:12.925Z,985.62
2019-01-27T10:05:17.207Z,985.62
2019-01-27T10:06:21.422Z,985.58
2019-01-27T10:07:25.531Z,985.60
2019-01-27T10:08:29.614Z,985.58
2019-01-27T10:09:33.808Z,985.62
2019-01-27T10:10:38.081Z,985.60
2019-01-27T10:11:42.253Z,985.59
2019-01-27T10:12:46.454Z,985.59
2019-01-27T10:13:50.673Z,985.56
2019-01-27T10:14:54.783Z,985.55
2019-01-27T10:15:59.088Z,985.58
2019-01-27T10:17:03.184Z,985.53
2019-01-27T10:18:07.336Z,985.53
2019-01-27T10:19:11.585Z,985.53
2019-01-27T10:20:15.708Z,985.52
2019-01-27T10:21:20.034Z,985.52
2019-01-27T10:22:24.199Z,985.51
2019-01-27T10:23:28.416Z,985.49
2019-01-27T10:24:32.670Z,985.48
2019-01-27T10:25:36.911Z,985.47
2019-01-27T10:26:41.098Z,985.42
2019-01-27T10:27:45.314Z,985.42
2019-01-27T10:28:49.521Z,985.43
2019-01-27T10:29:53.706Z,985.41
2019-01-27T10:30:57.859Z,985.40
2019-01-27T10:32:01.995Z,985.38
2019-01-27T10:33:06.117Z,985.36
2019-01-27T10:34:10.325Z,985.35
2019-01-27T10:35:14.450Z,985.32
2019-01-27T10:36:18.722Z,985.30
2019-01-27T10:37:22.812Z,985.27
2019-01-27T10:38:26.958Z,985.27
2019-01-27T10:39:31.253Z,985.26
2019-01-27T10:40:39.812Z,985.24
2019-01-27T10:41:39.642Z,985.23
2019-01-27T10:42:43.808Z,985.21
2019-01-27T10:43:47.993Z,985.20
2019-01-27T10:44:52.107Z,985.19
2019-01-27T10:45:56.362Z,985.15
2019-01-27T10:47:00.467Z,985.12
2019-01-27T10:48:04.685Z,985.09
2019-01-27T10:49:08.833Z,985.12
2019-01-27T10:50:12.970Z,985.06
2019-01-27T10:51:17.292Z,985.07
2019-01-27T10:52:21.467Z,985.03
2019-01-27T10:53:25.660Z,985.02
2019-01-27T10:54:29.764Z,985.00
2019-01-27T10:55:33.929Z,985.00
2019-01-27T10:56:38.185Z,984.99
2019-01-27T10:57:42.539Z,984.98
2019-01-27T10:58:46.545Z,984.95
2019-01-27T10:59:50.814Z,984.90
2019-01-27T11:00:54.897Z,984.89
2019-01-27T11:01:59.300Z,984.88
2019-01-27T11:03:03.443Z,984.87
2019-01-27T11:04:07.678Z,984.84
2019-01-27T11:05:11.858Z,984.84
2019-01-27T11:06:18.956Z,984.85
2019-01-27T11:07:22.234Z,984.85
2019-01-27T11:08:26.424Z,984.84
2019-01-27T11:09:30.610Z,984.83
2019-01-27T11:10:34.800Z,984.82
2019-01-27T11:11:38.933Z,984.80
2019-01-27T11:12:43.197Z,984.78
2019-01-27T11:13:47.303Z,984.78
2019-01-27T11:14:51.494Z,984.77
2019-01-27T11:15:55.740Z,984.74
2019-01-27T11:16:59.872Z,984.74
2019-01-27T11:18:03.984Z,984.73
2019-01-27T11:19:08.216Z,984.73
2019-01-27T11:20:12.415Z,984.72
2019-01-27T11:21:16.607Z,984.73
2019-01-27T11:22:20.822Z,984.72
2019-01-27T11:23:25.071Z,984.70
2019-01-27T11:24:29.155Z,984.69
2019-01-27T11:25:33.296Z,984.70
2019-01-27T11:26:37.518Z,984.70
2019-01-27T11:27:41.688Z,984.70
2019-01-27T11:28:45.877Z,984.68
2019-01-27T11:29:50.063Z,984.66
2019-01-27T11:30:54.218Z,984.65
2019-01-27T11:31:58.399Z,984.63
2019-01-27T11:33:02.682Z,984.61
2019-01-27T11:34:06.743Z,984.57
2019-01-27T11:35:10.981Z,984.56
2019-01-27T11:36:15.093Z,984.53
2019-01-27T11:37:19.302Z,984.49
2019-01-27T11:38:23.496Z,984.53
2019-01-27T11:39:27.618Z,984.50
2019-01-27T11:40:31.770Z,984.48
2019-01-27T11:41:36.006Z,984.49
2019-01-27T11:42:40.196Z,984.48
2019-01-27T11:43:44.397Z,984.45
2019-01-27T11:44:48.593Z,984.44
2019-01-27T11:45:52.745Z,984.41
2019-01-27T11:46:56.849Z,984.40
2019-01-27T11:48:01.137Z,984.40
2019-01-27T11:49:05.212Z,984.37
2019-01-27T11:50:09.433Z,984.37
2019-01-27T11:51:13.623Z,984.37
2019-01-27T11:52:17.823Z,984.34
2019-01-27T11:53:21.894Z,984.29
2019-01-27T11:54:26.033Z,984.29
2019-01-27T11:55:30.233Z,984.28
2019-01-27T11:56:34.443Z,984.29
2019-01-27T11:57:38.693Z,984.29
2019-01-27T11:58:42.922Z,984.25
2019-01-27T11:59:47.093Z,984.24
2019-01-27T12:00:51.331Z,984.21
2019-01-27T12:01:55.534Z,984.22
2019-01-27T12:02:59.730Z,984.19
2019-01-27T12:04:03.905Z,984.18
2019-01-27T12:05:08.056Z,984.14
2019-01-27T12:06:12.294Z,984.15
2019-01-27T12:07:16.491Z,984.09
2019-01-27T12:08:20.703Z,984.08
2019-01-27T12:09:24.933Z,984.07
2019-01-27T12:10:29.123Z,984.08
2019-01-27T12:11:33.341Z,984.07
2019-01-27T12:12:37.480Z,984.04
2019-01-27T12:13:41.664Z,984.03
2019-01-27T12:14:45.780Z,984.05
2019-01-27T12:15:50.057Z,984.03
2019-01-27T12:16:54.256Z,984.01
2019-01-27T12:17:58.463Z,984.03
2019-01-27T12:19:02.586Z,983.99
2019-01-27T12:20:06.842Z,984.00
2019-01-27T12:21:11.023Z,983.99
2019-01-27T12:22:15.111Z,983.99
2019-01-27T12:23:19.372Z,983.99
2019-01-27T12:24:23.590Z,983.98
2019-01-27T12:25:27.684Z,983.95
2019-01-27T12:26:31.947Z,983.95
2019-01-27T12:27:36.129Z,983.93
2019-01-27T12:28:40.356Z,983.95
2019-01-27T12:29:44.584Z,983.93
2019-01-27T12:30:48.809Z,983.93
2019-01-27T12:31:52.920Z,983.92
2019-01-27T12:32:57.054Z,983.93
2019-01-27T12:34:01.192Z,983.92
2019-01-27T12:35:05.495Z,983.93
2019-01-27T12:36:09.690Z,983.93
2019-01-27T12:37:13.809Z,983.94
2019-01-27T12:38:18.044Z,983.89
2019-01-27T12:39:22.197Z,983.85
2019-01-27T12:40:26.424Z,983.82
2019-01-27T12:41:30.580Z,983.78
2019-01-27T12:42:34.863Z,983.79
2019-01-27T12:43:39.021Z,983.77
2019-01-27T12:44:43.230Z,983.78
2019-01-27T12:45:47.321Z,983.78
2019-01-27T12:46:51.492Z,983.76
2019-01-27T12:47:55.653Z,983.76
2019-01-27T12:48:59.848Z,983.75
2019-01-27T12:50:04.006Z,983.74
2019-01-27T12:51:08.193Z,983.73
2019-01-27T12:52:12.303Z,983.71
2019-01-27T12:53:16.443Z,983.69
2019-01-27T12:54:21.496Z,983.70
2019-01-27T12:55:25.361Z,983.69
2019-01-27T12:56:29.541Z,983.67
2019-01-27T12:57:33.624Z,983.64
2019-01-27T12:58:37.851Z,983.62
2019-01-27T12:59:41.996Z,983.61
2019-01-27T13:00:46.205Z,983.58
2019-01-27T13:01:50.361Z,983.57
2019-01-27T13:02:54.524Z,983.55
2019-01-27T13:03:58.759Z,983.56
2019-01-27T13:05:02.921Z,983.51
2019-01-27T13:06:07.095Z,983.50
2019-01-27T13:07:11.310Z,983.52
2019-01-27T13:08:15.524Z,983.51
2019-01-27T13:09:19.729Z,983.48
2019-01-27T13:10:23.961Z,983.49
2019-01-27T13:11:28.146Z,983.49
2019-01-27T13:12:32.345Z,983.51
2019-01-27T13:13:36.934Z,983.55
2019-01-27T13:14:40.651Z,983.50
2019-01-27T13:15:44.839Z,983.50
2019-01-27T13:16:49.095Z,983.51
2019-01-27T13:17:53.295Z,983.49
2019-01-27T13:18:57.517Z,983.51
2019-01-27T13:20:01.711Z,983.51
2019-01-27T13:21:05.827Z,983.50
2019-01-27T13:22:12.330Z,983.48